Time;durP1;ratioP1;P1;durP2;ratioP2;P2;SDS_P1;SDS_P2;PMS_P1;PMS_P2;Temp;Humidity;BMP_temperature;BMP_pressure;BME280_temperature;BME280_humidity;BME280_pressure;Samples;Min_cycle;Max_cycle;Signal;HPM_P1;HPM_P2
2023/05/27 00:00:10;;;;;;;13.48;6.13;;;;;;;;;;5052633;28;20017;-31
2023/05/27 00:02:36;;;;;;;17.52;6.55;;;;;;;;;;5052405;28;20024;-33
2023/05/27 00:05:03;;;;;;;20.02;6.70;;;;;;;;;;5052420;28;20047;-30
2023/05/27 00:07:29;;;;;;;13.05;5.90;;;;;;;;;;5052181;28;20031;-32
2023/05/27 00:09:55;;;;;;;14.07;5.90;;;;;;;;;;5051234;28;20112;-30
2023/05/27 00:12:21;;;;;;;12.98;6.05;;;;;;;;;;5052155;28;20433;-34
2023/05/27 00:14:47;;;;;;;13.55;5.47;;;;;;;;;;5051412;28;20116;-30
2023/05/27 00:17:17;;;;;;;13.23;5.45;;;;;;;;;;5052117;28;20074;-35
2023/05/27 00:19:47;;;;;;;12.63;5.65;;;;;;;;;;5052049;28;20036;-30
2023/05/27 00:22:13;;;;;;;13.43;5.28;;;;;;;;;;5051926;28;20079;-31
2023/05/27 00:24:41;;;;;;;12.05;5.80;;;;;;;;;;5051815;28;20029;-35
2023/05/27 00:27:07;;;;;;;12.50;5.35;;;;;;;;;;5051827;28;20482;-30
2023/05/27 00:29:33;;;;;;;15.27;6.05;;;;;;;;;;5052057;28;20107;-30
2023/05/27 00:32:02;;;;;;;11.40;4.97;;;;;;;;;;5051967;28;20379;-29
2023/05/27 00:34:28;;;;;;;13.38;4.88;;;;;;;;;;5052079;28;20021;-33
2023/05/27 00:36:54;;;;;;;11.43;4.25;;;;;;;;;;5051840;28;20029;-31
2023/05/27 00:39:20;;;;;;;13.40;4.80;;;;;;;;;;5051644;28;20047;-30
2023/05/27 00:41:49;;;;;;;11.15;4.15;;;;;;;;;;5052125;28;20448;-30
2023/05/27 00:44:15;;;;;;;12.80;4.63;;;;;;;;;;5051864;28;20033;-33
2023/05/27 00:46:41;;;;;;;13.18;4.68;;;;;;;;;;5051804;28;20021;-30
2023/05/27 00:49:07;;;;;;;12.77;4.50;;;;;;;;;;5051775;28;20493;-29
2023/05/27 00:51:33;;;;;;;10.65;4.85;;;;;;;;;;5050429;28;20033;-30
2023/05/27 00:53:59;;;;;;;13.82;5.22;;;;;;;;;;5051528;28;20112;-31
2023/05/27 00:56:26;;;;;;;9.10;4.25;;;;;;;;;;5051804;28;20033;-30
2023/05/27 00:58:52;;;;;;;13.77;4.95;;;;;;;;;;5051583;28;20035;-31
2023/05/27 01:01:19;;;;;;;11.90;4.40;;;;;;;;;;5051783;28;20029;-34
2023/05/27 01:03:46;;;;;;;12.88;4.20;;;;;;;;;;5051653;28;20403;-30
2023/05/27 01:06:21;;;;;;;12.82;4.93;;;;;;;;;;5051796;28;20473;-31
2023/05/27 01:09:03;;;;;;;11.20;3.95;;;;;;;;;;5051675;28;20497;-30
2023/05/27 01:11:31;;;;;;;10.05;4.90;;;;;;;;;;5051385;28;20025;-30
2023/05/27 01:14:00;;;;;;;12.82;5.03;;;;;;;;;;5051683;28;20033;-30
2023/05/27 01:16:30;;;;;;;11.80;4.30;;;;;;;;;;5051702;28;20040;-30
2023/05/27 01:18:59;;;;;;;11.93;3.83;;;;;;;;;;5051566;28;20017;-30
2023/05/27 01:21:30;;;;;;;9.20;4.13;;;;;;;;;;5051801;28;20390;-31
2023/05/27 01:24:02;;;;;;;10.32;3.53;;;;;;;;;;5051830;28;20486;-31
2023/05/27 01:26:28;;;;;;;9.70;4.18;;;;;;;;;;5053170;28;20079;-34
2023/05/27 01:28:54;;;;;;;10.90;3.90;;;;;;;;;;5055126;28;20466;-31
2023/05/27 01:31:22;;;;;;;10.50;3.85;;;;;;;;;;5054945;28;20538;-34
2023/05/27 01:34:08;;;;;;;14.32;3.78;;;;;;;;;;5055062;28;20025;-33
2023/05/27 01:36:38;;;;;;;13.32;3.92;;;;;;;;;;5054928;28;20130;-30
2023/05/27 01:39:05;;;;;;;13.88;4.07;;;;;;;;;;5054773;28;20045;-30
2023/05/27 01:41:32;;;;;;;12.23;4.18;;;;;;;;;;5054885;28;20037;-30
2023/05/27 01:43:58;;;;;;;10.68;3.83;;;;;;;;;;5054830;28;20503;-31
2023/05/27 01:46:24;;;;;;;11.77;4.43;;;;;;;;;;5054944;28;20461;-30
2023/05/27 01:48:50;;;;;;;8.27;3.50;;;;;;;;;;5054786;28;20029;-30
2023/05/27 01:51:16;;;;;;;9.63;3.67;;;;;;;;;;5054705;28;20025;-31
2023/05/27 01:53:42;;;;;;;10.63;3.97;;;;;;;;;;5054918;28;20021;-31
2023/05/27 01:56:08;;;;;;;7.53;3.47;;;;;;;;;;5055060;28;20045;-30
2023/05/27 01:58:34;;;;;;;11.52;4.10;;;;;;;;;;5055088;28;20751;-30
2023/05/27 02:01:00;;;;;;;9.57;3.75;;;;;;;;;;5054583;28;20539;-30
2023/05/27 02:03:26;;;;;;;9.85;3.53;;;;;;;;;;5054968;28;20025;-30
2023/05/27 02:05:52;;;;;;;14.27;3.78;;;;;;;;;;5055125;28;20052;-30
2023/05/27 02:08:18;;;;;;;10.45;3.38;;;;;;;;;;5054665;28;20083;-30
2023/05/27 02:10:44;;;;;;;11.23;3.63;;;;;;;;;;5054490;28;20098;-31
2023/05/27 02:13:10;;;;;;;11.63;4.10;;;;;;;;;;5054712;28;20319;-30
2023/05/27 02:15:36;;;;;;;11.13;3.38;;;;;;;;;;5054240;28;20382;-30
2023/05/27 02:18:04;;;;;;;9.65;3.63;;;;;;;;;;5054181;28;20103;-31
2023/05/27 02:20:30;;;;;;;8.80;3.65;;;;;;;;;;5052077;28;20087;-30
2023/05/27 02:22:56;;;;;;;11.07;3.60;;;;;;;;;;5054054;28;20017;-30
2023/05/27 02:25:22;;;;;;;10.40;3.58;;;;;;;;;;5054190;28;20053;-30
2023/05/27 02:27:50;;;;;;;11.27;3.72;;;;;;;;;;5054083;28;20028;-30
2023/05/27 02:30:16;;;;;;;13.77;3.58;;;;;;;;;;5054266;28;20386;-30
2023/05/27 02:32:42;;;;;;;9.88;3.58;;;;;;;;;;5054392;28;20104;-31
2023/05/27 02:35:08;;;;;;;9.15;3.22;;;;;;;;;;5054324;28;20171;-31
2023/05/27 02:37:34;;;;;;;9.88;3.65;;;;;;;;;;5053199;28;20378;-32
2023/05/27 02:40:00;;;;;;;10.63;4.40;;;;;;;;;;5053835;28;20052;-32
2023/05/27 02:42:26;;;;;;;13.23;3.50;;;;;;;;;;5054026;28;20031;-30
2023/05/27 02:44:52;;;;;;;11.00;3.88;;;;;;;;;;5053968;28;20122;-30
2023/05/27 02:47:19;;;;;;;12.77;3.58;;;;;;;;;;5054045;28;20017;-35
2023/05/27 02:49:45;;;;;;;8.90;3.35;;;;;;;;;;5054118;28;20490;-31
2023/05/27 02:52:12;;;;;;;9.05;2.90;;;;;;;;;;5052576;28;20087;-30
2023/05/27 02:54:38;;;;;;;8.10;3.40;;;;;;;;;;5053881;28;20071;-32
2023/05/27 02:57:04;;;;;;;9.73;3.80;;;;;;;;;;5053560;28;20051;-32
2023/05/27 02:59:29;;;;;;;9.52;3.67;;;;;;;;;;5053929;28;20500;-30
2023/05/27 03:01:55;;;;;;;11.50;3.30;;;;;;;;;;5053406;28;20039;-30
2023/05/27 03:04:22;;;;;;;8.48;3.35;;;;;;;;;;5053451;28;20057;-31
2023/05/27 03:06:48;;;;;;;10.75;3.33;;;;;;;;;;5053489;28;20108;-31
2023/05/27 03:09:14;;;;;;;8.70;3.50;;;;;;;;;;5052241;28;20067;-30
2023/05/27 03:11:40;;;;;;;9.23;3.58;;;;;;;;;;5053671;28;20486;-34
2023/05/27 03:14:06;;;;;;;7.18;2.83;;;;;;;;;;5053523;28;20032;-31
2023/05/27 03:16:32;;;;;;;10.10;3.35;;;;;;;;;;5053476;28;20112;-31
2023/05/27 03:18:58;;;;;;;10.27;3.00;;;;;;;;;;5053276;28;20070;-31
2023/05/27 03:21:24;;;;;;;8.80;3.70;;;;;;;;;;5053518;28;20032;-30
2023/05/27 03:23:50;;;;;;;13.65;3.85;;;;;;;;;;5053337;28;20033;-30
2023/05/27 03:26:16;;;;;;;9.82;3.38;;;;;;;;;;5053465;28;20096;-29
2023/05/27 03:28:42;;;;;;;13.25;3.50;;;;;;;;;;5051941;28;20020;-30
2023/05/27 03:31:08;;;;;;;8.52;3.17;;;;;;;;;;5053188;28;20033;-30
2023/05/27 03:33:34;;;;;;;10.18;3.05;;;;;;;;;;5051941;28;20385;-32
2023/05/27 03:36:00;;;;;;;8.25;2.97;;;;;;;;;;5053304;28;20032;-30
2023/05/27 03:38:26;;;;;;;10.10;3.92;;;;;;;;;;5053235;28;20413;-30
2023/05/27 03:40:52;;;;;;;9.30;2.97;;;;;;;;;;5052938;28;20098;-30
2023/05/27 03:43:18;;;;;;;6.50;2.90;;;;;;;;;;5052734;28;20478;-31
2023/05/27 03:45:44;;;;;;;9.48;3.35;;;;;;;;;;5052675;28;20108;-35
2023/05/27 03:48:10;;;;;;;6.53;3.35;;;;;;;;;;5052667;28;20063;-30
2023/05/27 03:50:36;;;;;;;9.82;3.47;;;;;;;;;;5053065;28;20025;-42
2023/05/27 03:53:02;;;;;;;10.30;3.22;;;;;;;;;;5052205;28;20025;-42
2023/05/27 03:55:28;;;;;;;9.13;3.38;;;;;;;;;;5052180;28;20025;-42
2023/05/27 03:57:54;;;;;;;7.03;2.85;;;;;;;;;;5051976;28;20381;-42
2023/05/27 04:00:21;;;;;;;9.55;3.33;;;;;;;;;;5051967;28;20029;-42
2023/05/27 04:02:47;;;;;;;7.30;3.10;;;;;;;;;;5051803;28;20476;-41
2023/05/27 04:05:13;;;;;;;7.35;3.28;;;;;;;;;;5051811;28;20099;-42
2023/05/27 04:07:39;;;;;;;8.35;4.15;;;;;;;;;;5051855;28;20485;-41
2023/05/27 04:10:05;;;;;;;9.75;3.90;;;;;;;;;;5051811;28;20021;-42
2023/05/27 04:12:31;;;;;;;8.80;3.88;;;;;;;;;;5051891;28;20028;-40
2023/05/27 04:14:57;;;;;;;6.93;3.03;;;;;;;;;;5051789;28;20100;-41
2023/05/27 04:17:23;;;;;;;9.50;3.20;;;;;;;;;;5051727;28;20049;-42
2023/05/27 04:19:49;;;;;;;9.27;3.20;;;;;;;;;;5051788;28;20118;-42
2023/05/27 04:22:15;;;;;;;10.43;3.80;;;;;;;;;;5051691;28;20032;-42
2023/05/27 04:24:43;;;;;;;7.72;3.33;;;;;;;;;;5051438;28;20036;-42
2023/05/27 04:27:09;;;;;;;8.40;3.30;;;;;;;;;;5051795;28;20108;-40
2023/05/27 04:29:36;;;;;;;7.57;2.83;;;;;;;;;;5050417;28;20066;-42
2023/05/27 04:32:01;;;;;;;9.32;3.53;;;;;;;;;;5051623;28;20021;-42
2023/05/27 04:34:27;;;;;;;7.38;3.78;;;;;;;;;;5051534;28;20035;-42
2023/05/27 04:36:54;;;;;;;10.45;3.08;;;;;;;;;;5051435;28;20481;-42
2023/05/27 04:39:20;;;;;;;11.45;3.28;;;;;;;;;;5051342;28;20425;-42
2023/05/27 04:41:46;;;;;;;5.80;2.75;;;;;;;;;;5051534;28;20032;-42
2023/05/27 04:44:12;;;;;;;11.50;3.65;;;;;;;;;;5051401;28;20116;-43
2023/05/27 04:46:43;;;;;;;8.40;3.60;;;;;;;;;;5051471;28;20247;-42
2023/05/27 04:49:10;;;;;;;8.48;3.10;;;;;;;;;;5051298;28;20036;-42
2023/05/27 04:51:36;;;;;;;6.18;2.90;;;;;;;;;;5051399;28;20035;-42
2023/05/27 04:54:02;;;;;;;8.45;3.38;;;;;;;;;;5051542;28;20021;-42
2023/05/27 04:56:28;;;;;;;7.28;3.00;;;;;;;;;;5051519;28;20033;-43
2023/05/27 04:58:55;;;;;;;8.20;3.35;;;;;;;;;;5051248;28;20420;-43
2023/05/27 05:01:24;;;;;;;7.47;3.03;;;;;;;;;;5054686;28;20369;-43
2023/05/27 05:03:52;;;;;;;8.75;3.20;;;;;;;;;;5055006;28;20028;-43
2023/05/27 05:06:22;;;;;;;8.60;3.00;;;;;;;;;;5055058;28;20021;-41
2023/05/27 05:08:48;;;;;;;8.90;3.50;;;;;;;;;;5055107;28;20036;-42
2023/05/27 05:11:14;;;;;;;5.82;2.90;;;;;;;;;;5055053;28;20033;-42
2023/05/27 05:13:40;;;;;;;7.90;2.78;;;;;;;;;;5055106;28;20036;-42
2023/05/27 05:16:06;;;;;;;10.65;3.28;;;;;;;;;;5055142;28;20029;-42
2023/05/27 05:18:32;;;;;;;6.78;3.03;;;;;;;;;;5055029;28;20029;-41
2023/05/27 05:20:58;;;;;;;9.93;3.53;;;;;;;;;;5054846;28;20029;-41
2023/05/27 05:23:24;;;;;;;7.07;2.97;;;;;;;;;;5054868;28;20032;-41
2023/05/27 05:25:56;;;;;;;11.95;3.28;;;;;;;;;;5054884;28;20529;-42
2023/05/27 05:28:22;;;;;;;8.45;3.83;;;;;;;;;;5054823;28;20025;-41
2023/05/27 05:30:48;;;;;;;8.27;3.60;;;;;;;;;;5054759;28;20446;-42
2023/05/27 05:33:14;;;;;;;12.25;3.70;;;;;;;;;;5054739;28;20388;-42
2023/05/27 05:35:40;;;;;;;8.35;3.33;;;;;;;;;;5054723;28;20426;-42
2023/05/27 05:38:06;;;;;;;9.50;3.72;;;;;;;;;;5054614;28;20369;-42
2023/05/27 05:40:32;;;;;;;8.18;3.20;;;;;;;;;;5054285;28;20395;-41
2023/05/27 05:42:58;;;;;;;9.70;3.17;;;;;;;;;;5054564;28;20014;-41
2023/05/27 05:45:25;;;;;;;8.48;3.42;;;;;;;;;;5054961;28;20067;-41
2023/05/27 05:47:51;;;;;;;7.07;3.30;;;;;;;;;;5054573;28;20529;-41
2023/05/27 05:50:17;;;;;;;7.18;3.17;;;;;;;;;;5054725;28;20024;-41
2023/05/27 05:52:43;;;;;;;10.57;3.55;;;;;;;;;;5054391;28;20055;-42
2023/05/27 05:55:09;;;;;;;9.32;2.90;;;;;;;;;;5054203;28;20035;-41
2023/05/27 05:57:35;;;;;;;7.65;2.95;;;;;;;;;;5054125;28;20031;-40
2023/05/27 06:00:01;;;;;;;9.32;2.72;;;;;;;;;;5054148;28;20028;-41
2023/05/27 06:02:27;;;;;;;8.10;3.50;;;;;;;;;;5053034;28;20112;-42
2023/05/27 06:04:53;;;;;;;9.05;3.25;;;;;;;;;;5054160;28;20552;-43
2023/05/27 06:07:19;;;;;;;8.10;3.42;;;;;;;;;;5053991;28;20470;-41
2023/05/27 06:09:45;;;;;;;11.15;3.45;;;;;;;;;;5054056;28;20013;-40
2023/05/27 06:12:11;;;;;;;8.63;3.30;;;;;;;;;;5053828;28;20025;-42
2023/05/27 06:14:37;;;;;;;6.97;3.15;;;;;;;;;;5052713;28;20466;-43
2023/05/27 06:17:03;;;;;;;10.88;3.92;;;;;;;;;;5053870;28;20390;-42
2023/05/27 06:19:29;;;;;;;7.78;2.85;;;;;;;;;;5053786;28;20079;-42
2023/05/27 06:21:55;;;;;;;9.43;3.60;;;;;;;;;;5053835;28;20056;-42
2023/05/27 06:24:21;;;;;;;7.30;3.42;;;;;;;;;;5053723;28;20025;-41
2023/05/27 06:26:47;;;;;;;10.57;4.07;;;;;;;;;;5053627;28;20067;-41
2023/05/27 06:29:13;;;;;;;9.82;2.90;;;;;;;;;;5052496;28;20104;-41
2023/05/27 06:31:38;;;;;;;10.55;3.70;;;;;;;;;;5053613;28;20432;-42
2023/05/27 06:34:05;;;;;;;8.27;3.63;;;;;;;;;;5053530;28;20541;-42
2023/05/27 06:36:31;;;;;;;7.97;3.28;;;;;;;;;;5053573;28;20032;-43
2023/05/27 06:38:57;;;;;;;5.45;3.08;;;;;;;;;;5053390;28;20037;-42
2023/05/27 06:41:23;;;;;;;9.38;4.00;;;;;;;;;;5053566;28;20789;-42
2023/05/27 06:43:49;;;;;;;7.30;2.97;;;;;;;;;;5053100;28;20072;-43
2023/05/27 06:46:15;;;;;;;11.73;3.67;;;;;;;;;;5053359;28;20024;-42
2023/05/27 06:48:41;;;;;;;8.07;3.10;;;;;;;;;;5053152;28;20021;-41
2023/05/27 06:51:07;;;;;;;8.80;3.05;;;;;;;;;;5053262;28;20049;-41
2023/05/27 06:53:33;;;;;;;10.32;3.00;;;;;;;;;;5053192;28;20466;-41
2023/05/27 06:56:00;;;;;;;10.45;3.55;;;;;;;;;;5053059;28;20071;-42
2023/05/27 06:58:26;;;;;;;9.43;3.17;;;;;;;;;;5053157;28;20033;-42
2023/05/27 07:00:52;;;;;;;8.63;3.40;;;;;;;;;;5052977;28;20025;-41
2023/05/27 07:03:18;;;;;;;8.52;3.22;;;;;;;;;;5053072;28;20025;-42
2023/05/27 07:05:43;;;;;;;9.98;3.35;;;;;;;;;;5053046;28;20047;-42
2023/05/27 07:08:09;;;;;;;10.85;3.50;;;;;;;;;;5052725;28;20501;-43
2023/05/27 07:10:35;;;;;;;7.63;3.40;;;;;;;;;;5053017;28;20460;-42
2023/05/27 07:13:02;;;;;;;8.57;3.30;;;;;;;;;;5052770;28;20029;-42
2023/05/27 07:15:28;;;;;;;7.28;2.95;;;;;;;;;;5052611;28;20040;-43
2023/05/27 07:17:54;;;;;;;7.70;2.70;;;;;;;;;;5052586;28;20075;-42
2023/05/27 07:20:19;;;;;;;8.07;3.22;;;;;;;;;;5052733;28;20056;-46
2023/05/27 07:22:45;;;;;;;8.05;3.30;;;;;;;;;;5052025;28;20116;-43
2023/05/27 07:25:11;;;;;;;8.00;3.10;;;;;;;;;;5051330;28;20028;-42
2023/05/27 07:27:37;;;;;;;8.93;3.72;;;;;;;;;;5052719;28;20101;-42
2023/05/27 07:30:03;;;;;;;9.20;3.40;;;;;;;;;;5051452;28;20029;-42
2023/05/27 07:32:30;;;;;;;8.73;3.38;;;;;;;;;;5052700;28;20103;-41
2023/05/27 07:34:56;;;;;;;8.13;3.25;;;;;;;;;;5052742;28;20028;-42
2023/05/27 07:37:23;;;;;;;10.10;3.58;;;;;;;;;;5052237;28;20056;-41
2023/05/27 07:39:51;;;;;;;10.10;3.20;;;;;;;;;;5052281;28;20045;-41
2023/05/27 07:42:17;;;;;;;8.20;3.13;;;;;;;;;;5052401;28;20786;-41
2023/05/27 07:44:43;;;;;;;9.05;2.95;;;;;;;;;;5052365;28;20037;-41
2023/05/27 07:47:09;;;;;;;7.90;2.97;;;;;;;;;;5052055;28;20111;-41
2023/05/27 07:49:35;;;;;;;7.22;3.40;;;;;;;;;;5052178;28;20021;-42
2023/05/27 07:52:01;;;;;;;8.75;3.45;;;;;;;;;;5051960;28;20029;-41
2023/05/27 07:54:27;;;;;;;7.68;3.08;;;;;;;;;;5051996;28;20029;-42
2023/05/27 07:56:53;;;;;;;9.23;3.00;;;;;;;;;;5052141;28;20413;-42
2023/05/27 07:59:19;;;;;;;7.35;3.10;;;;;;;;;;5050695;28;20028;-41
2023/05/27 08:01:45;;;;;;;9.52;3.28;;;;;;;;;;5051842;28;20112;-41
2023/05/27 08:04:11;;;;;;;8.95;3.22;;;;;;;;;;5051853;28;20024;-42
2023/05/27 08:06:37;;;;;;;8.57;3.28;;;;;;;;;;5051830;28;20017;-41
2023/05/27 08:09:03;;;;;;;11.45;3.58;;;;;;;;;;5050579;28;20493;-42
2023/05/27 08:11:30;;;;;;;10.73;3.72;;;;;;;;;;5051677;28;20047;-41
2023/05/27 08:13:56;;;;;;;6.38;3.13;;;;;;;;;;5051727;28;20135;-41
2023/05/27 08:16:22;;;;;;;8.05;3.15;;;;;;;;;;5051652;28;20032;-41
2023/05/27 08:18:47;;;;;;;8.65;3.35;;;;;;;;;;5051768;28;20029;-42
2023/05/27 08:21:13;;;;;;;9.25;3.50;;;;;;;;;;5051587;28;20087;-42
2023/05/27 08:23:40;;;;;;;4.53;2.53;;;;;;;;;;5050321;28;20092;-41
2023/05/27 08:26:06;;;;;;;9.15;3.55;;;;;;;;;;5051792;28;20096;-41
2023/05/27 08:28:34;;;;;;;7.15;3.30;;;;;;;;;;5051656;28;20094;-42
2023/05/27 08:31:01;;;;;;;7.93;3.33;;;;;;;;;;5051596;28;20523;-42
2023/05/27 08:33:27;;;;;;;6.90;3.05;;;;;;;;;;5051668;28;20045;-43
2023/05/27 08:35:52;;;;;;;8.48;3.28;;;;;;;;;;5054001;28;20457;-41
2023/05/27 08:38:18;;;;;;;8.60;3.35;;;;;;;;;;5055645;28;20051;-41
2023/05/27 08:40:45;;;;;;;9.88;4.25;;;;;;;;;;5055632;28;20848;-42
2023/05/27 08:43:11;;;;;;;11.00;3.33;;;;;;;;;;5055672;28;20140;-42
2023/05/27 08:45:40;;;;;;;9.30;3.55;;;;;;;;;;5055588;28;20032;-42
2023/05/27 08:48:07;;;;;;;10.52;3.42;;;;;;;;;;5055570;28;20028;-42
2023/05/27 08:50:33;;;;;;;7.10;2.90;;;;;;;;;;5055594;28;20082;-42
2023/05/27 08:52:59;;;;;;;9.23;3.30;;;;;;;;;;5054378;28;20786;-41
2023/05/27 08:55:26;;;;;;;9.52;3.28;;;;;;;;;;5055473;28;20071;-42
2023/05/27 08:57:54;;;;;;;7.72;3.10;;;;;;;;;;5055419;28;20116;-42
2023/05/27 09:00:21;;;;;;;10.57;3.35;;;;;;;;;;5055738;28;20075;-42
2023/05/27 09:02:47;;;;;;;8.57;3.70;;;;;;;;;;5055328;28;20922;-42
2023/05/27 09:05:13;;;;;;;10.98;3.83;;;;;;;;;;5055225;28;20029;-43
2023/05/27 09:07:39;;;;;;;8.32;3.92;;;;;;;;;;5055258;28;20063;-42
2023/05/27 09:10:07;;;;;;;9.73;3.97;;;;;;;;;;5055196;28;20029;-42
2023/05/27 09:12:33;;;;;;;13.80;4.10;;;;;;;;;;5055085;28;20115;-42
2023/05/27 09:14:59;;;;;;;11.60;4.22;;;;;;;;;;5055039;28;20473;-42
2023/05/27 09:17:25;;;;;;;9.23;4.03;;;;;;;;;;5055087;28;20040;-42
2023/05/27 09:19:52;;;;;;;10.95;4.18;;;;;;;;;;5054847;28;20063;-43
2023/05/27 09:22:21;;;;;;;10.07;4.82;;;;;;;;;;5054937;28;20366;-41
2023/05/27 09:24:47;;;;;;;12.93;4.18;;;;;;;;;;5054747;28;20028;-41
2023/05/27 09:27:13;;;;;;;13.88;4.30;;;;;;;;;;5054782;28;20021;-42
2023/05/27 09:29:40;;;;;;;10.48;4.70;;;;;;;;;;5054761;28;20504;-42
2023/05/27 09:32:07;;;;;;;8.93;4.45;;;;;;;;;;5054747;28;20017;-41
2023/05/27 09:34:38;;;;;;;9.73;4.57;;;;;;;;;;5054713;28;20512;-41
2023/05/27 09:37:04;;;;;;;12.13;4.85;;;;;;;;;;5053352;28;20024;-41
2023/05/27 09:39:30;;;;;;;13.20;4.40;;;;;;;;;;5054232;28;20402;-42
2023/05/27 09:41:58;;;;;;;10.45;4.32;;;;;;;;;;5054422;28;20025;-41
2023/05/27 09:44:29;;;;;;;10.00;4.30;;;;;;;;;;5054251;28;20029;-42
2023/05/27 09:46:55;;;;;;;10.80;4.65;;;;;;;;;;5053951;28;20025;-41
2023/05/27 09:49:21;;;;;;;14.98;4.28;;;;;;;;;;5053039;28;20032;-41
2023/05/27 09:51:47;;;;;;;12.05;5.15;;;;;;;;;;5054626;28;20017;-43
2023/05/27 09:54:18;;;;;;;14.68;4.20;;;;;;;;;;5054163;28;20780;-42
2023/05/27 09:56:48;;;;;;;9.63;4.07;;;;;;;;;;5054072;28;20056;-42
2023/05/27 09:59:14;;;;;;;12.15;4.13;;;;;;;;;;5054043;28;20040;-41
2023/05/27 10:01:40;;;;;;;12.02;4.70;;;;;;;;;;5053941;28;20033;-42
2023/05/27 10:04:07;;;;;;;12.52;4.50;;;;;;;;;;5053934;28;20465;-42
2023/05/27 10:06:33;;;;;;;15.02;4.10;;;;;;;;;;5052397;28;20025;-42
2023/05/27 10:09:03;;;;;;;11.98;4.07;;;;;;;;;;5053795;28;20025;-42
2023/05/27 10:11:31;;;;;;;8.07;3.88;;;;;;;;;;5053921;28;20021;-42
2023/05/27 10:13:57;;;;;;;7.43;3.90;;;;;;;;;;5053393;28;20029;-42
2023/05/27 10:16:23;;;;;;;10.13;4.50;;;;;;;;;;5052208;28;20032;-42
2023/05/27 10:18:59;;;;;;;16.70;4.22;;;;;;;;;;5053257;28;20040;-43
2023/05/27 10:21:30;;;;;;;12.93;4.47;;;;;;;;;;5053628;28;20047;-43
2023/05/27 10:24:00;;;;;;;13.05;4.82;;;;;;;;;;5053488;28;20102;-41
2023/05/27 10:26:33;;;;;;;12.30;4.25;;;;;;;;;;5053762;28;20029;-42
2023/05/27 10:29:09;;;;;;;12.73;3.50;;;;;;;;;;5052093;28;20017;-41
2023/05/27 10:31:38;;;;;;;9.40;3.75;;;;;;;;;;5053320;28;20470;-42
2023/05/27 10:34:06;;;;;;;15.40;4.63;;;;;;;;;;5052165;28;20120;-41
2023/05/27 10:36:32;;;;;;;9.27;4.25;;;;;;;;;;5052717;28;20021;-42
2023/05/27 10:39:00;;;;;;;10.65;4.18;;;;;;;;;;5052967;28;20116;-42
2023/05/27 10:41:26;;;;;;;10.13;3.92;;;;;;;;;;5053090;28;20067;-42
2023/05/27 10:43:57;;;;;;;8.57;3.50;;;;;;;;;;5053265;28;20041;-42
2023/05/27 10:46:23;;;;;;;12.25;4.15;;;;;;;;;;5053178;28;20052;-42
2023/05/27 10:48:49;;;;;;;11.98;4.40;;;;;;;;;;5053264;28;20029;-42
2023/05/27 10:51:15;;;;;;;13.55;4.57;;;;;;;;;;5051625;28;20017;-43
2023/05/27 10:53:41;;;;;;;12.10;3.90;;;;;;;;;;5052948;28;20064;-43
2023/05/27 10:56:10;;;;;;;10.63;4.13;;;;;;;;;;5053081;28;20025;-42
2023/05/27 10:58:38;;;;;;;9.68;3.78;;;;;;;;;;5052146;28;20029;-43
2023/05/27 11:01:09;;;;;;;8.52;4.10;;;;;;;;;;5052863;28;20025;-42
2023/05/27 11:03:35;;;;;;;10.35;4.32;;;;;;;;;;5052594;28;20099;-43
2023/05/27 11:06:02;;;;;;;9.52;3.80;;;;;;;;;;5052777;28;20036;-42
2023/05/27 11:08:29;;;;;;;15.77;4.05;;;;;;;;;;5052653;28;20066;-42
2023/05/27 11:11:06;;;;;;;10.25;4.32;;;;;;;;;;5051479;28;20017;-42
2023/05/27 11:13:32;;;;;;;9.05;3.90;;;;;;;;;;5052523;28;20025;-41
2023/05/27 11:15:58;;;;;;;11.93;3.88;;;;;;;;;;5052501;28;20477;-42
2023/05/27 11:18:24;;;;;;;12.75;3.85;;;;;;;;;;5052430;28;20107;-43
2023/05/27 11:20:50;;;;;;;10.52;3.90;;;;;;;;;;5052353;28;20024;-42
2023/05/27 11:23:16;;;;;;;13.00;3.85;;;;;;;;;;5052288;28;20021;-42
2023/05/27 11:25:45;;;;;;;11.32;4.38;;;;;;;;;;5050949;28;20079;-42
2023/05/27 11:28:17;;;;;;;11.00;4.25;;;;;;;;;;5052201;28;20029;-42
2023/05/27 11:30:43;;;;;;;;;;;;;;;;;;5052486;28;20382;-42
2023/05/27 11:33:10;;;;;;;11.93;3.75;;;;;;;;;;5052154;28;20250;-42
2023/05/27 11:35:36;;;;;;;11.60;4.53;;;;;;;;;;5052090;28;20474;-42
2023/05/27 11:38:02;;;;;;;14.35;3.92;;;;;;;;;;5052176;28;20017;-43
2023/05/27 11:40:35;;;;;;;12.90;4.30;;;;;;;;;;5051900;28;20063;-41
2023/05/27 11:43:01;;;;;;;16.25;4.85;;;;;;;;;;5052485;28;20029;-42
2023/05/27 11:45:30;;;;;;;11.85;5.07;;;;;;;;;;5052024;28;20064;-42
2023/05/27 11:47:56;;;;;;;15.18;4.90;;;;;;;;;;5052042;28;20092;-43
2023/05/27 11:50:22;;;;;;;14.70;5.00;;;;;;;;;;5051855;28;20445;-42
2023/05/27 11:52:58;;;;;;;11.60;4.85;;;;;;;;;;5051786;28;20061;-41
2023/05/27 11:55:24;;;;;;;12.18;4.63;;;;;;;;;;5051859;28;20083;-42
2023/05/27 11:57:50;;;;;;;13.00;4.85;;;;;;;;;;5051786;28;20028;-42
2023/05/27 12:00:17;;;;;;;14.80;4.85;;;;;;;;;;5051514;28;20053;-42
2023/05/27 12:02:44;;;;;;;15.15;5.20;;;;;;;;;;5051566;28;20025;-42
2023/05/27 12:05:10;;;;;;;16.17;5.05;;;;;;;;;;5051626;28;20037;-42
2023/05/27 12:07:40;;;;;;;14.23;5.22;;;;;;;;;;5051610;28;20546;-41
2023/05/27 12:10:06;;;;;;;13.88;5.40;;;;;;;;;;5051432;28;20017;-42
2023/05/27 12:12:34;;;;;;;21.00;6.13;;;;;;;;;;5051510;28;20020;-42
2023/05/27 12:15:00;;;;;;;23.70;7.32;;;;;;;;;;5050136;28;20108;-42
2023/05/27 12:17:26;;;;;;;24.77;6.97;;;;;;;;;;5051460;28;20535;-32
2023/05/27 12:19:52;;;;;;;26.27;7.32;;;;;;;;;;5051391;28;20029;-32
2023/05/27 12:22:18;;;;;;;27.73;7.22;;;;;;;;;;5051604;28;20438;-32
2023/05/27 12:24:44;;;;;;;27.95;7.18;;;;;;;;;;5051522;28;20763;-32
2023/05/27 12:27:09;;;;;;;31.45;7.90;;;;;;;;;;5051596;28;20032;-32
2023/05/27 12:29:36;;;;;;;35.65;8.32;;;;;;;;;;5051176;28;20112;-33
2023/05/27 12:32:03;;;;;;;33.35;9.27;;;;;;;;;;5051257;28;20024;-32
2023/05/27 12:34:29;;;;;;;28.25;7.88;;;;;;;;;;5051310;28;20025;-33
2023/05/27 12:36:54;;;;;;;41.30;9.73;;;;;;;;;;5051310;28;20082;-33
2023/05/27 12:39:21;;;;;;;42.70;9.60;;;;;;;;;;5050937;28;20554;-33
2023/05/27 12:41:47;;;;;;;36.85;9.57;;;;;;;;;;5050987;28;20029;-31
2023/05/27 12:44:13;;;;;;;30.92;9.93;;;;;;;;;;5051047;28;20039;-31
2023/05/27 12:46:39;;;;;;;43.53;10.15;;;;;;;;;;5051262;28;20106;-32
2023/05/27 12:49:07;;;;;;;40.72;11.70;;;;;;;;;;5049910;28;20028;-32
2023/05/27 12:51:33;;;;;;;43.50;12.00;;;;;;;;;;5051018;28;20025;-42
2023/05/27 12:53:59;;;;;;;40.75;10.18;;;;;;;;;;5051038;28;20033;-42
2023/05/27 12:56:25;;;;;;;43.17;11.57;;;;;;;;;;5051130;28;20374;-43
2023/05/27 12:58:51;;;;;;;48.33;10.68;;;;;;;;;;5051175;28;20021;-42
2023/05/27 13:01:17;;;;;;;43.50;11.05;;;;;;;;;;5051141;28;20029;-42
2023/05/27 13:03:43;;;;;;;46.75;11.07;;;;;;;;;;5050799;28;20488;-42
2023/05/27 13:06:09;;;;;;;50.60;11.73;;;;;;;;;;5049813;28;20393;-42
2023/05/27 13:08:36;;;;;;;49.03;12.00;;;;;;;;;;5050963;28;20029;-42
2023/05/27 13:11:02;;;;;;;42.15;11.13;;;;;;;;;;5050845;28;20021;-42
2023/05/27 13:13:28;;;;;;;40.55;11.30;;;;;;;;;;5051033;28;20083;-42
2023/05/27 13:15:54;;;;;;;51.65;11.77;;;;;;;;;;5050839;28;20112;-42
2023/05/27 13:18:20;;;;;;;47.28;11.98;;;;;;;;;;5050816;28;20541;-42
2023/05/27 13:20:46;;;;;;;36.28;12.43;;;;;;;;;;5051361;28;20032;-42
2023/05/27 13:23:12;;;;;;;39.50;10.50;;;;;;;;;;5054637;28;20024;-41
2023/05/27 13:25:39;;;;;;;50.30;12.38;;;;;;;;;;5054768;28;20039;-42
2023/05/27 13:28:05;;;;;;;37.55;11.77;;;;;;;;;;5053380;28;20434;-42
2023/05/27 13:30:31;;;;;;;40.05;11.77;;;;;;;;;;5054752;28;20021;-42
2023/05/27 13:32:57;;;;;;;45.38;11.73;;;;;;;;;;5054598;28;20032;-41
2023/05/27 13:35:23;;;;;;;43.92;11.32;;;;;;;;;;5054485;28;20028;-42
2023/05/27 13:37:49;;;;;;;41.10;12.00;;;;;;;;;;5054310;28;20029;-42
2023/05/27 13:40:15;;;;;;;38.65;11.52;;;;;;;;;;5054173;28;20048;-42
2023/05/27 13:42:41;;;;;;;46.63;12.13;;;;;;;;;;5054382;28;20048;-42
2023/05/27 13:45:07;;;;;;;35.10;10.23;;;;;;;;;;5054280;28;20471;-42
2023/05/27 13:47:33;;;;;;;33.55;10.55;;;;;;;;;;5054256;28;20031;-42
2023/05/27 13:49:59;;;;;;;34.65;10.55;;;;;;;;;;5054735;28;20029;-42
2023/05/27 13:52:25;;;;;;;39.38;10.95;;;;;;;;;;5054615;28;20021;-42
2023/05/27 13:54:51;;;;;;;37.72;10.88;;;;;;;;;;5054219;28;20040;-41
2023/05/27 13:57:17;;;;;;;33.17;9.75;;;;;;;;;;5054100;28;20055;-41
2023/05/27 13:59:43;;;;;;;35.22;11.80;;;;;;;;;;5054028;28;20108;-42
2023/05/27 14:02:09;;;;;;;38.08;11.63;;;;;;;;;;5054052;28;20457;-41
2023/05/27 14:04:35;;;;;;;40.40;12.43;;;;;;;;;;5053873;28;20025;-41
2023/05/27 14:07:01;;;;;;;34.85;10.88;;;;;;;;;;5053872;28;20075;-42
2023/05/27 14:09:28;;;;;;;28.92;11.75;;;;;;;;;;5053871;28;20021;-43
2023/05/27 14:11:54;;;;;;;35.35;10.82;;;;;;;;;;5053813;28;20096;-41
2023/05/27 14:14:20;;;;;;;29.92;9.95;;;;;;;;;;5053831;28;20028;-42
2023/05/27 14:16:47;;;;;;;31.55;10.55;;;;;;;;;;5053680;28;20456;-40
2023/05/27 14:19:13;;;;;;;31.83;11.20;;;;;;;;;;5053798;28;20025;-42
2023/05/27 14:21:40;;;;;;;32.50;10.18;;;;;;;;;;5053765;28;20037;-42
2023/05/27 14:24:06;;;;;;;27.23;8.95;;;;;;;;;;5052341;28;20032;-42
2023/05/27 14:26:32;;;;;;;32.90;9.63;;;;;;;;;;5053831;28;20029;-42
2023/05/27 14:28:58;;;;;;;26.38;9.35;;;;;;;;;;5053550;28;20103;-42